createdAt,value
2023-01-17T00:02:18.387Z,13.45
2023-01-17T00:05:04.724Z,13.49
2023-01-17T00:07:51.093Z,13.46
2023-01-17T00:10:20.910Z,13.42
2023-01-17T00:12:53.955Z,13.40
2023-01-17T00:15:23.074Z,13.32
2023-01-17T00:17:50.552Z,13.23
2023-01-17T00:20:44.764Z,13.17
2023-01-17T00:23:37.511Z,13.17
2023-01-17T00:26:09.702Z,13.19
2023-01-17T00:28:39.903Z,13.24
2023-01-17T00:31:09.026Z,13.26
2023-01-17T00:33:36.602Z,13.26
2023-01-17T00:36:04.477Z,13.30
2023-01-17T00:38:33.945Z,13.27
2023-01-17T00:41:06.504Z,13.19
2023-01-17T00:43:52.179Z,13.23
2023-01-17T00:46:37.982Z,13.32
2023-01-17T00:49:23.968Z,13.28
2023-01-17T00:52:09.571Z,13.34
2023-01-17T00:54:55.422Z,13.36
2023-01-17T00:57:40.888Z,13.45
2023-01-17T01:00:27.087Z,13.46
2023-01-17T01:03:12.921Z,13.50
2023-01-17T01:05:58.430Z,13.48
2023-01-17T01:08:47.116Z,13.50
2023-01-17T01:11:36.037Z,13.56
2023-01-17T01:14:22.619Z,13.64
2023-01-17T01:17:09.259Z,13.63
2023-01-17T01:19:55.066Z,13.65
2023-01-17T01:22:40.861Z,13.70
2023-01-17T01:25:27.189Z,13.72
2023-01-17T01:28:21.690Z,13.77
2023-01-17T01:31:07.193Z,13.81
2023-01-17T01:33:34.251Z,13.74
2023-01-17T01:36:01.230Z,13.74
2023-01-17T01:38:28.306Z,13.72
2023-01-17T01:40:57.104Z,13.77
2023-01-17T01:43:45.997Z,13.75
2023-01-17T01:46:41.511Z,13.73
2023-01-17T01:49:26.131Z,13.68
2023-01-17T01:51:58.845Z,13.77
2023-01-17T01:54:33.913Z,13.82
2023-01-17T01:57:03.987Z,13.83
2023-01-17T01:59:33.111Z,13.81
2023-01-17T02:02:00.272Z,13.86
2023-01-17T02:04:28.654Z,13.87
2023-01-17T02:07:25.125Z,13.81
2023-01-17T02:09:52.863Z,13.73
2023-01-17T02:12:21.068Z,13.66
2023-01-17T02:14:48.187Z,13.60
2023-01-17T02:17:32.984Z,13.53
2023-01-17T02:20:34.126Z,13.39
2023-01-17T02:23:31.876Z,13.23
2023-01-17T02:26:36.436Z,13.09
2023-01-17T02:29:21.386Z,13.00
2023-01-17T02:32:03.479Z,12.96
2023-01-17T02:35:02.871Z,12.97
2023-01-17T02:37:40.512Z,13.02
2023-01-17T02:40:16.852Z,12.99
2023-01-17T02:42:53.779Z,13.00
2023-01-17T02:45:21.413Z,13.01
2023-01-17T02:47:48.502Z,13.01
2023-01-17T02:50:21.220Z,13.02
2023-01-17T02:52:54.191Z,13.00
2023-01-17T02:55:39.904Z,13.01
2023-01-17T02:58:24.320Z,12.97
2023-01-17T03:01:09.641Z,13.18
2023-01-17T03:03:42.470Z,13.29
2023-01-17T03:06:16.899Z,13.37
2023-01-17T03:08:46.504Z,13.36
2023-01-17T03:11:14.419Z,13.37
2023-01-17T03:13:42.467Z,13.43
2023-01-17T03:16:17.163Z,13.49
2023-01-17T03:18:44.435Z,13.57
2023-01-17T03:21:11.471Z,13.62
2023-01-17T03:23:38.671Z,13.68
2023-01-17T03:26:05.822Z,13.67
2023-01-17T03:28:34.713Z,13.71
2023-01-17T03:31:01.802Z,13.71
2023-01-17T03:33:28.921Z,13.67
2023-01-17T03:35:58.329Z,13.63
2023-01-17T03:38:29.453Z,13.61
2023-01-17T03:40:56.822Z,13.69
2023-01-17T03:43:23.948Z,13.67
2023-01-17T03:45:54.554Z,13.64
2023-01-17T03:48:22.101Z,13.61
2023-01-17T03:50:53.315Z,13.57
2023-01-17T03:53:20.364Z,13.59
2023-01-17T03:55:48.082Z,13.59
2023-01-17T03:58:16.502Z,13.60
2023-01-17T04:00:43.873Z,13.65
2023-01-17T04:03:10.971Z,13.61
2023-01-17T04:05:37.944Z,13.64
2023-01-17T04:08:07.302Z,13.66
2023-01-17T04:10:34.366Z,13.63
2023-01-17T04:13:01.330Z,13.59
2023-01-17T04:15:28.480Z,13.56
2023-01-17T04:17:55.702Z,13.54
2023-01-17T04:20:33.425Z,13.53
2023-01-17T04:23:00.794Z,13.56
2023-01-17T04:25:30.115Z,13.52
2023-01-17T04:27:58.657Z,13.44
2023-01-17T04:30:26.693Z,13.42
2023-01-17T04:32:54.080Z,13.37
2023-01-17T04:35:21.707Z,13.32
2023-01-17T04:37:48.764Z,13.17
2023-01-17T04:40:15.967Z,13.02
2023-01-17T04:42:45.361Z,12.84
2023-01-17T04:45:13.490Z,12.76
2023-01-17T04:47:41.054Z,12.71
2023-01-17T04:50:09.833Z,12.61
2023-01-17T04:52:37.209Z,12.57
2023-01-17T04:55:04.800Z,12.54
2023-01-17T04:57:31.861Z,12.49
2023-01-17T04:59:58.909Z,12.46
2023-01-17T05:02:26.052Z,12.48
2023-01-17T05:04:53.515Z,12.48
2023-01-17T05:07:20.637Z,12.48
2023-01-17T05:09:47.836Z,12.44
2023-01-17T05:12:14.942Z,12.45
2023-01-17T05:14:41.935Z,12.46
2023-01-17T05:17:11.390Z,12.47
2023-01-17T05:19:38.519Z,12.51
2023-01-17T05:22:15.093Z,12.53
2023-01-17T05:24:46.536Z,12.57
2023-01-17T05:27:14.540Z,12.60
2023-01-17T05:29:41.975Z,12.64
2023-01-17T05:32:09.318Z,12.65
2023-01-17T05:34:36.475Z,12.66
2023-01-17T05:37:03.693Z,12.70
2023-01-17T05:39:31.294Z,12.75
2023-01-17T05:41:59.403Z,12.77
2023-01-17T05:44:27.896Z,12.77
2023-01-17T05:46:56.321Z,12.81
2023-01-17T05:49:23.589Z,12.85
2023-01-17T05:51:51.195Z,12.85
2023-01-17T05:54:19.202Z,12.88
2023-01-17T05:56:46.230Z,12.90
2023-01-17T05:59:14.282Z,12.84
2023-01-17T06:01:41.473Z,12.87
2023-01-17T06:04:08.813Z,12.87
2023-01-17T06:06:35.873Z,12.84
2023-01-17T06:09:03.109Z,12.82
2023-01-17T06:11:30.323Z,12.84
2023-01-17T06:13:57.293Z,12.88
2023-01-17T06:16:24.363Z,12.88
2023-01-17T06:18:51.395Z,12.91
2023-01-17T06:21:18.900Z,12.95
2023-01-17T06:23:46.132Z,12.94
2023-01-17T06:26:13.301Z,12.97
2023-01-17T06:28:40.324Z,12.98
2023-01-17T06:31:09.149Z,13.04
2023-01-17T06:33:36.486Z,13.08
2023-01-17T06:36:03.954Z,13.13
2023-01-17T06:38:31.578Z,13.13
2023-01-17T06:41:00.516Z,13.21
2023-01-17T06:43:32.672Z,13.27
2023-01-17T06:46:01.132Z,13.30
2023-01-17T06:48:28.254Z,13.34
2023-01-17T06:50:57.225Z,13.41
2023-01-17T06:53:24.248Z,13.42
2023-01-17T06:55:52.727Z,13.46
2023-01-17T06:58:20.892Z,13.52
2023-01-17T07:00:48.227Z,13.54
2023-01-17T07:03:21.544Z,13.55
2023-01-17T07:05:48.854Z,13.56
2023-01-17T07:08:17.143Z,13.61
2023-01-17T07:10:45.355Z,13.65
2023-01-17T07:13:13.430Z,13.71
2023-01-17T07:15:40.471Z,13.75
2023-01-17T07:18:07.667Z,13.83
2023-01-17T07:20:35.728Z,13.84
2023-01-17T07:23:02.852Z,13.93
2023-01-17T07:25:30.026Z,13.98
2023-01-17T07:27:57.834Z,14.00
2023-01-17T07:30:25.156Z,14.03
2023-01-17T07:32:55.965Z,14.12
2023-01-17T07:35:26.746Z,14.24
2023-01-17T07:37:54.793Z,14.39
2023-01-17T07:40:22.821Z,14.58
2023-01-17T07:42:50.125Z,14.77
2023-01-17T07:45:18.127Z,15.01
2023-01-17T07:47:45.426Z,15.21
2023-01-17T07:50:13.805Z,15.30
2023-01-17T07:52:41.101Z,15.44
2023-01-17T07:55:09.164Z,15.52
2023-01-17T07:57:36.244Z,15.64
2023-01-17T08:00:04.569Z,15.74
2023-01-17T08:02:39.258Z,15.85
2023-01-17T08:05:06.544Z,16.02
2023-01-17T08:07:33.540Z,16.22
2023-01-17T08:10:01.465Z,16.40
2023-01-17T08:12:29.651Z,16.33
2023-01-17T08:14:56.849Z,16.29
2023-01-17T08:17:23.903Z,16.31
2023-01-17T08:19:52.286Z,16.30
2023-01-17T08:22:19.824Z,16.42
2023-01-17T08:24:46.840Z,16.64
2023-01-17T08:27:13.970Z,16.74
2023-01-17T08:29:47.042Z,16.39
2023-01-17T08:32:15.143Z,16.12
2023-01-17T08:34:42.499Z,16.09
2023-01-17T08:37:09.831Z,16.18
2023-01-17T08:39:36.957Z,16.48
2023-01-17T08:42:04.247Z,16.83
2023-01-17T08:44:31.483Z,17.05
2023-01-17T08:46:59.205Z,17.19
2023-01-17T08:49:28.422Z,17.30
2023-01-17T08:51:55.745Z,17.30
2023-01-17T08:54:23.246Z,17.35
2023-01-17T08:56:53.136Z,17.37
2023-01-17T08:59:20.245Z,17.40
2023-01-17T09:01:47.557Z,17.55
2023-01-17T09:04:15.250Z,17.64
2023-01-17T09:06:48.559Z,17.64
2023-01-17T09:09:17.069Z,17.58
2023-01-17T09:11:44.359Z,17.47
2023-01-17T09:14:14.743Z,17.49
2023-01-17T09:16:41.871Z,17.55
2023-01-17T09:19:09.644Z,17.59
2023-01-17T09:21:36.845Z,17.70
2023-01-17T09:24:04.120Z,17.72
2023-01-17T09:26:31.930Z,17.82
2023-01-17T09:28:59.085Z,17.87
2023-01-17T09:31:27.409Z,17.81
2023-01-17T09:33:56.701Z,17.64
2023-01-17T09:36:24.576Z,17.53
2023-01-17T09:38:57.437Z,17.41
2023-01-17T09:41:33.702Z,17.45
2023-01-17T09:44:03.292Z,17.41
2023-01-17T09:46:33.859Z,17.55
2023-01-17T09:49:09.784Z,17.59
2023-01-17T09:51:37.351Z,17.78
2023-01-17T09:54:05.055Z,17.73
2023-01-17T09:56:47.225Z,17.55
2023-01-17T09:59:35.977Z,17.52
2023-01-17T10:02:20.838Z,17.49
2023-01-17T10:05:30.121Z,17.59
2023-01-17T10:08:24.185Z,17.70
2023-01-17T10:11:09.572Z,18.07
2023-01-17T10:14:04.656Z,18.35
2023-01-17T10:16:47.736Z,18.52
2023-01-17T10:19:32.963Z,18.65
2023-01-17T10:22:30.640Z,18.85
2023-01-17T10:25:16.722Z,18.86
2023-01-17T10:28:12.825Z,18.49
2023-01-17T10:30:49.150Z,18.42
2023-01-17T10:33:37.120Z,18.40
2023-01-17T10:36:14.127Z,18.36
2023-01-17T10:38:47.776Z,18.57
2023-01-17T10:41:23.409Z,18.65
2023-01-17T10:44:02.389Z,18.41
2023-01-17T10:46:43.727Z,18.13
2023-01-17T10:49:23.659Z,18.17
2023-01-17T10:51:51.671Z,18.09
2023-01-17T10:54:45.110Z,18.18
2023-01-17T10:57:43.223Z,18.20
2023-01-17T11:00:25.694Z,18.13
2023-01-17T11:02:52.916Z,18.13
2023-01-17T11:05:31.785Z,18.45
2023-01-17T11:08:06.902Z,18.56
2023-01-17T11:10:36.887Z,18.43
2023-01-17T11:13:25.019Z,18.40
2023-01-17T11:16:01.015Z,18.28
2023-01-17T11:18:35.523Z,18.27
2023-01-17T11:21:17.901Z,18.17
2023-01-17T11:23:50.978Z,18.00
2023-01-17T11:26:26.391Z,17.96
2023-01-17T11:29:13.285Z,18.02
2023-01-17T11:31:40.363Z,18.11
2023-01-17T11:34:18.952Z,18.02
2023-01-17T11:36:46.151Z,17.92
2023-01-17T11:39:19.014Z,17.88
2023-01-17T11:41:47.992Z,17.86
2023-01-17T11:44:22.624Z,17.92
2023-01-17T11:47:08.362Z,17.86
2023-01-17T11:49:36.056Z,17.77
2023-01-17T11:52:26.400Z,17.89
2023-01-17T11:54:55.514Z,17.92
2023-01-17T11:57:32.936Z,17.79
2023-01-17T11:59:59.965Z,17.66
2023-01-17T12:02:51.863Z,17.65
2023-01-17T12:05:43.096Z,17.79
2023-01-17T12:08:44.418Z,18.40
2023-01-17T12:11:23.833Z,19.05
2023-01-17T12:14:12.377Z,19.40
2023-01-17T12:16:51.437Z,19.47
2023-01-17T12:19:54.343Z,19.52
2023-01-17T12:22:42.308Z,19.78
2023-01-17T12:25:33.521Z,19.59
2023-01-17T12:28:12.660Z,19.53
2023-01-17T12:31:05.096Z,19.54
2023-01-17T12:33:46.112Z,19.55
2023-01-17T12:36:25.593Z,19.72
2023-01-17T12:38:52.684Z,19.92
2023-01-17T12:41:26.579Z,20.11
2023-01-17T12:44:01.005Z,20.19
2023-01-17T12:46:44.541Z,20.20
2023-01-17T12:49:38.307Z,20.12
2023-01-17T12:52:34.485Z,19.88
2023-01-17T12:55:10.868Z,19.78
2023-01-17T12:57:45.484Z,19.72
2023-01-17T13:00:25.633Z,19.75
2023-01-17T13:03:04.768Z,19.81
2023-01-17T13:05:41.958Z,19.50
2023-01-17T13:08:18.211Z,19.24
2023-01-17T13:10:58.299Z,18.99
2023-01-17T13:13:28.193Z,18.74
2023-01-17T13:16:27.605Z,19.09
2023-01-17T13:18:57.825Z,19.32
2023-01-17T13:21:33.430Z,19.33
2023-01-17T13:24:02.240Z,19.30
2023-01-17T13:26:48.940Z,19.16
2023-01-17T13:29:30.211Z,19.11
2023-01-17T13:32:34.242Z,19.15
2023-01-17T13:35:13.972Z,19.26
2023-01-17T13:38:02.267Z,19.24
2023-01-17T13:40:33.733Z,19.17
2023-01-17T13:43:12.276Z,19.42
2023-01-17T13:45:39.927Z,19.72
2023-01-17T13:48:12.701Z,19.72
2023-01-17T13:51:08.238Z,19.58
2023-01-17T13:53:35.208Z,19.35
2023-01-17T13:56:23.202Z,19.16
2023-01-17T13:58:50.605Z,19.02
2023-01-17T14:01:23.783Z,19.12
2023-01-17T14:03:51.124Z,19.24
2023-01-17T14:06:41.246Z,19.27
2023-01-17T14:09:08.445Z,19.17
2023-01-17T14:12:01.172Z,19.12
2023-01-17T14:14:40.430Z,18.98
2023-01-17T14:17:17.156Z,19.04
2023-01-17T14:19:48.920Z,19.04
2023-01-17T14:22:18.645Z,19.03
2023-01-17T14:25:10.135Z,18.93
2023-01-17T14:27:47.671Z,18.83
2023-01-17T14:30:18.204Z,18.76
2023-01-17T14:33:10.772Z,18.61
2023-01-17T14:35:41.293Z,18.61
2023-01-17T14:38:26.240Z,18.44
2023-01-17T14:41:07.951Z,18.29
2023-01-17T14:43:40.989Z,18.22
2023-01-17T14:46:32.736Z,18.15
2023-01-17T14:49:06.121Z,18.07
2023-01-17T14:51:35.658Z,18.02
2023-01-17T14:54:06.586Z,17.93
2023-01-17T14:56:34.239Z,17.92
2023-01-17T14:59:27.677Z,17.84
2023-01-17T15:02:07.696Z,17.71
2023-01-17T15:04:39.794Z,17.64
2023-01-17T15:07:08.188Z,17.54
2023-01-17T15:09:38.221Z,17.51
2023-01-17T15:12:10.513Z,17.43
2023-01-17T15:14:43.137Z,17.32
2023-01-17T15:17:21.335Z,17.23
2023-01-17T15:19:54.564Z,17.14
2023-01-17T15:22:23.825Z,17.05
2023-01-17T15:24:51.319Z,17.01
2023-01-17T15:27:18.540Z,16.92
2023-01-17T15:29:47.081Z,16.87
2023-01-17T15:32:28.062Z,16.80
2023-01-17T15:34:55.279Z,16.75
2023-01-17T15:37:36.205Z,16.72
2023-01-17T15:40:07.775Z,16.69
2023-01-17T15:42:38.755Z,16.61
2023-01-17T15:45:13.237Z,16.55
2023-01-17T15:47:40.457Z,16.50
2023-01-17T15:50:27.896Z,16.44
2023-01-17T15:52:57.147Z,16.38
2023-01-17T15:55:39.845Z,16.29
2023-01-17T15:58:33.024Z,16.22
2023-01-17T16:01:00.713Z,16.16
2023-01-17T16:03:30.833Z,16.10
2023-01-17T16:06:00.873Z,16.04
2023-01-17T16:08:38.667Z,16.01
2023-01-17T16:11:07.484Z,15.95
2023-01-17T16:13:38.794Z,15.88
2023-01-17T16:16:35.445Z,15.81
2023-01-17T16:19:03.066Z,15.74
2023-01-17T16:21:31.539Z,15.70
2023-01-17T16:24:00.051Z,15.68
2023-01-17T16:26:29.403Z,15.66
2023-01-17T16:28:57.097Z,15.65
2023-01-17T16:31:24.215Z,15.59
2023-01-17T16:33:51.837Z,15.53
2023-01-17T16:36:20.958Z,15.54
2023-01-17T16:38:50.477Z,15.51
2023-01-17T16:41:18.274Z,15.44
2023-01-17T16:43:45.373Z,15.43
2023-01-17T16:46:12.509Z,15.39
2023-01-17T16:48:39.672Z,15.35
2023-01-17T16:51:07.517Z,15.33
2023-01-17T16:53:35.918Z,15.30
2023-01-17T16:56:10.151Z,15.29
2023-01-17T16:58:37.378Z,15.27
2023-01-17T17:01:22.937Z,15.24
2023-01-17T17:03:50.485Z,15.24
2023-01-17T17:06:17.903Z,15.23
2023-01-17T17:08:45.080Z,15.20
2023-01-17T17:11:21.699Z,15.18
2023-01-17T17:13:50.200Z,15.13
2023-01-17T17:16:19.094Z,15.09
2023-01-17T17:18:53.599Z,15.10
2023-01-17T17:21:21.046Z,15.07
2023-01-17T17:23:51.147Z,15.07
2023-01-17T17:26:18.704Z,15.05
2023-01-17T17:28:45.861Z,15.04
2023-01-17T17:31:12.964Z,15.00
2023-01-17T17:33:40.177Z,14.97
2023-01-17T17:36:10.428Z,14.92
2023-01-17T17:38:51.109Z,14.95
2023-01-17T17:41:26.773Z,14.95
2023-01-17T17:43:54.805Z,14.92
2023-01-17T17:46:23.459Z,14.91
2023-01-17T17:48:50.618Z,14.90
2023-01-17T17:51:29.094Z,14.89
2023-01-17T17:54:01.038Z,14.88
2023-01-17T17:56:29.986Z,14.86
2023-01-17T17:58:58.293Z,14.82
2023-01-17T18:01:25.798Z,14.72
2023-01-17T18:03:56.216Z,14.72
2023-01-17T18:06:24.310Z,14.70
2023-01-17T18:08:54.566Z,14.65
2023-01-17T18:11:24.760Z,14.68
2023-01-17T18:13:55.097Z,14.65
2023-01-17T18:16:28.777Z,14.62
2023-01-17T18:18:58.069Z,14.60
2023-01-17T18:21:27.787Z,14.58
2023-01-17T18:23:59.003Z,14.58
2023-01-17T18:26:29.959Z,14.53
2023-01-17T18:28:59.527Z,14.53
2023-01-17T18:31:27.968Z,14.53
2023-01-17T18:33:56.702Z,14.49
2023-01-17T18:36:25.051Z,14.46
2023-01-17T18:38:52.790Z,14.41
2023-01-17T18:41:33.349Z,14.38
2023-01-17T18:44:05.117Z,14.36
2023-01-17T18:46:33.411Z,14.37
2023-01-17T18:49:00.481Z,14.39
2023-01-17T18:51:30.264Z,14.39
2023-01-17T18:53:58.224Z,14.39
2023-01-17T18:56:26.411Z,14.33
2023-01-17T18:58:53.593Z,14.30
2023-01-17T19:01:23.566Z,14.28
2023-01-17T19:03:53.133Z,14.31
2023-01-17T19:06:23.392Z,14.29
2023-01-17T19:08:54.443Z,14.28
2023-01-17T19:11:24.805Z,14.28
2023-01-17T19:13:53.329Z,14.31
2023-01-17T19:16:28.183Z,14.30
2023-01-17T19:18:57.195Z,14.30
2023-01-17T19:21:27.602Z,14.30
2023-01-17T19:23:55.986Z,14.27
2023-01-17T19:26:25.157Z,14.26
2023-01-17T19:28:55.331Z,14.30
2023-01-17T19:31:27.815Z,14.28
2023-01-17T19:33:57.703Z,14.24
2023-01-17T19:36:27.596Z,14.27
2023-01-17T19:39:04.493Z,14.28
2023-01-17T19:41:34.357Z,14.27
2023-01-17T19:44:04.892Z,14.23
2023-01-17T19:46:32.771Z,14.23
2023-01-17T19:49:00.501Z,14.27
2023-01-17T19:51:28.185Z,14.21
2023-01-17T19:53:56.706Z,14.16
2023-01-17T19:56:26.054Z,14.16
2023-01-17T19:58:54.793Z,14.18
2023-01-17T20:01:26.799Z,14.19
2023-01-17T20:03:57.580Z,14.20
2023-01-17T20:06:29.148Z,14.17
2023-01-17T20:08:56.776Z,14.17
2023-01-17T20:11:25.739Z,14.13
2023-01-17T20:13:55.247Z,14.10
2023-01-17T20:16:23.922Z,14.10
2023-01-17T20:18:51.620Z,14.09
2023-01-17T20:21:21.419Z,14.05
2023-01-17T20:23:50.230Z,14.00
2023-01-17T20:26:23.370Z,13.98
2023-01-17T20:28:51.696Z,13.96
2023-01-17T20:31:21.225Z,13.98
2023-01-17T20:33:52.544Z,13.98
2023-01-17T20:36:21.930Z,13.97
2023-01-17T20:38:49.763Z,13.94
2023-01-17T20:41:22.781Z,13.90
2023-01-17T20:43:56.276Z,13.84
2023-01-17T20:46:26.118Z,13.86
2023-01-17T20:48:56.118Z,13.82
2023-01-17T20:51:27.972Z,13.80
2023-01-17T20:53:58.097Z,13.78
2023-01-17T20:56:29.034Z,13.77
2023-01-17T20:59:00.471Z,13.73
2023-01-17T21:01:28.434Z,13.71
2023-01-17T21:03:55.906Z,13.73
2023-01-17T21:06:24.894Z,13.77
2023-01-17T21:08:56.117Z,13.78
2023-01-17T21:11:30.943Z,13.78
2023-01-17T21:14:09.116Z,13.75
2023-01-17T21:16:40.332Z,13.75
2023-01-17T21:19:12.283Z,13.74
2023-01-17T21:21:42.409Z,13.72
2023-01-17T21:24:10.049Z,13.74
2023-01-17T21:26:43.139Z,13.73
2023-01-17T21:29:10.885Z,13.74
2023-01-17T21:31:41.136Z,13.73
2023-01-17T21:34:10.618Z,13.71
2023-01-17T21:36:40.489Z,13.73
2023-01-17T21:39:15.999Z,13.72
2023-01-17T21:41:51.366Z,13.69
2023-01-17T21:44:25.588Z,13.66
2023-01-17T21:46:55.978Z,13.66
2023-01-17T21:49:24.517Z,13.68
2023-01-17T21:51:54.791Z,13.67
2023-01-17T21:54:41.891Z,13.65
2023-01-17T21:57:31.087Z,13.64
2023-01-17T21:59:58.296Z,13.64
2023-01-17T22:02:28.061Z,13.59
2023-01-17T22:04:56.351Z,13.56
2023-01-17T22:07:24.906Z,13.54
2023-01-17T22:09:54.752Z,13.49
2023-01-17T22:12:22.803Z,13.43
2023-01-17T22:14:50.009Z,13.44
2023-01-17T22:17:17.073Z,13.45
2023-01-17T22:19:46.220Z,13.48
2023-01-17T22:22:13.893Z,13.49
2023-01-17T22:24:40.996Z,13.46
2023-01-17T22:27:10.217Z,13.40
2023-01-17T22:29:38.113Z,13.38
2023-01-17T22:32:06.248Z,13.35
2023-01-17T22:34:33.289Z,13.36
2023-01-17T22:37:00.722Z,13.33
2023-01-17T22:39:27.899Z,13.28
2023-01-17T22:41:54.852Z,13.28
2023-01-17T22:44:21.970Z,13.25
2023-01-17T22:46:48.997Z,13.18
2023-01-17T22:49:17.088Z,13.10
2023-01-17T22:51:45.024Z,13.07
2023-01-17T22:54:12.519Z,13.08
2023-01-17T22:56:39.530Z,13.07
2023-01-17T22:59:11.741Z,13.07
2023-01-17T23:01:43.122Z,13.01
2023-01-17T23:04:13.947Z,12.97
2023-01-17T23:06:42.046Z,12.93
2023-01-17T23:09:14.848Z,12.81
2023-01-17T23:11:44.066Z,12.72
2023-01-17T23:14:17.127Z,12.68
2023-01-17T23:17:23.764Z,12.64
2023-01-17T23:19:52.821Z,12.61
2023-01-17T23:22:20.823Z,12.70
2023-01-17T23:25:01.993Z,12.75
2023-01-17T23:27:51.849Z,12.78
2023-01-17T23:30:25.916Z,12.76
2023-01-17T23:32:56.309Z,12.77
2023-01-17T23:35:26.424Z,12.77
2023-01-17T23:38:12.143Z,12.81
2023-01-17T23:40:40.288Z,12.87
2023-01-17T23:43:26.471Z,12.88
2023-01-17T23:45:54.867Z,12.89
2023-01-17T23:48:24.835Z,12.89
2023-01-17T23:50:52.428Z,12.90
2023-01-17T23:53:23.893Z,12.91
2023-01-17T23:55:53.693Z,12.94
2023-01-17T23:58:23.187Z,12.98
